sensor_id;sensor_type;location;lat;lon;timestamp;temperature;humidity
11664;DHT22;72375;59.302;18.204;2024-01-06T00:01:11;-6.80;94.40
11664;DHT22;72375;59.302;18.204;2024-01-06T00:03:57;-6.80;94.50
11664;DHT22;72375;59.302;18.204;2024-01-06T00:06:44;-6.80;94.40
11664;DHT22;72375;59.302;18.204;2024-01-06T00:09:30;-6.80;94.40
11664;DHT22;72375;59.302;18.204;2024-01-06T00:12:15;-6.90;94.40
11664;DHT22;72375;59.302;18.204;2024-01-06T00:15:03;-6.90;94.50
11664;DHT22;72375;59.302;18.204;2024-01-06T00:17:48;-6.90;94.50
11664;DHT22;72375;59.302;18.204;2024-01-06T00:20:34;-6.90;94.50
11664;DHT22;72375;59.302;18.204;2024-01-06T00:23:21;-6.90;94.40
11664;DHT22;72375;59.302;18.204;2024-01-06T00:26:07;-7.00;94.40
11664;DHT22;72375;59.302;18.204;2024-01-06T00:28:53;-7.00;94.40
11664;DHT22;72375;59.302;18.204;2024-01-06T00:31:39;-6.90;94.40
11664;DHT22;72375;59.302;18.204;2024-01-06T00:34:25;-7.00;94.40
11664;DHT22;72375;59.302;18.204;2024-01-06T00:37:11;-6.90;94.50
11664;DHT22;72375;59.302;18.204;2024-01-06T00:39:58;-6.90;94.40
11664;DHT22;72375;59.302;18.204;2024-01-06T00:42:43;-6.90;94.40
11664;DHT22;72375;59.302;18.204;2024-01-06T00:45:29;-6.90;94.40
11664;DHT22;72375;59.302;18.204;2024-01-06T00:48:14;-6.90;94.40
11664;DHT22;72375;59.302;18.204;2024-01-06T00:51:00;-7.00;94.40
11664;DHT22;72375;59.302;18.204;2024-01-06T00:53:46;-7.00;94.40
11664;DHT22;72375;59.302;18.204;2024-01-06T00:56:33;-7.00;94.40
11664;DHT22;72375;59.302;18.204;2024-01-06T00:59:19;-7.00;94.40
11664;DHT22;72375;59.302;18.204;2024-01-06T01:02:04;-7.00;94.40
11664;DHT22;72375;59.302;18.204;2024-01-06T01:04:50;-7.00;94.40
11664;DHT22;72375;59.302;18.204;2024-01-06T01:07:37;-7.00;94.30
11664;DHT22;72375;59.302;18.204;2024-01-06T01:10:22;-7.00;94.30
11664;DHT22;72375;59.302;18.204;2024-01-06T01:13:10;-7.10;94.40
11664;DHT22;72375;59.302;18.204;2024-01-06T01:15:55;-7.10;94.40
11664;DHT22;72375;59.302;18.204;2024-01-06T01:18:41;-7.00;94.40
11664;DHT22;72375;59.302;18.204;2024-01-06T01:21:26;-7.10;94.40
11664;DHT22;72375;59.302;18.204;2024-01-06T01:24:12;-7.10;94.40
11664;DHT22;72375;59.302;18.204;2024-01-06T01:26:58;-7.10;94.40
11664;DHT22;72375;59.302;18.204;2024-01-06T01:29:45;-7.10;94.40
11664;DHT22;72375;59.302;18.204;2024-01-06T01:32:29;-7.10;94.40
11664;DHT22;72375;59.302;18.204;2024-01-06T01:35:15;-7.10;94.40
11664;DHT22;72375;59.302;18.204;2024-01-06T01:38:01;-7.10;94.40
11664;DHT22;72375;59.302;18.204;2024-01-06T01:40:47;-7.10;94.40
11664;DHT22;72375;59.302;18.204;2024-01-06T01:43:32;-7.10;94.50
11664;DHT22;72375;59.302;18.204;2024-01-06T01:46:19;-7.10;94.50
11664;DHT22;72375;59.302;18.204;2024-01-06T01:49:05;-7.10;94.50
11664;DHT22;72375;59.302;18.204;2024-01-06T01:51:52;-7.10;94.60
11664;DHT22;72375;59.302;18.204;2024-01-06T01:54:37;-7.10;94.60
11664;DHT22;72375;59.302;18.204;2024-01-06T01:57:24;-7.20;94.50
11664;DHT22;72375;59.302;18.204;2024-01-06T02:00:11;-7.10;94.60
11664;DHT22;72375;59.302;18.204;2024-01-06T02:02:59;-7.10;94.60
11664;DHT22;72375;59.302;18.204;2024-01-06T02:05:44;-7.10;94.60
11664;DHT22;72375;59.302;18.204;2024-01-06T02:08:30;-7.10;94.50
11664;DHT22;72375;59.302;18.204;2024-01-06T02:11:16;-7.10;94.60
11664;DHT22;72375;59.302;18.204;2024-01-06T02:14:01;-7.20;94.60
11664;DHT22;72375;59.302;18.204;2024-01-06T02:16:47;-7.20;94.60
11664;DHT22;72375;59.302;18.204;2024-01-06T02:19:34;-7.10;94.60
11664;DHT22;72375;59.302;18.204;2024-01-06T02:22:21;-7.20;94.60
11664;DHT22;72375;59.302;18.204;2024-01-06T02:25:07;-7.10;94.70
11664;DHT22;72375;59.302;18.204;2024-01-06T02:27:56;-7.10;94.60
11664;DHT22;72375;59.302;18.204;2024-01-06T02:30:42;-7.10;94.60
11664;DHT22;72375;59.302;18.204;2024-01-06T02:33:28;-7.10;94.60
11664;DHT22;72375;59.302;18.204;2024-01-06T02:36:14;-7.10;94.50
11664;DHT22;72375;59.302;18.204;2024-01-06T02:39:01;-7.10;94.60
11664;DHT22;72375;59.302;18.204;2024-01-06T02:41:46;-7.10;94.60
11664;DHT22;72375;59.302;18.204;2024-01-06T02:44:32;-7.10;94.70
11664;DHT22;72375;59.302;18.204;2024-01-06T02:47:17;-7.10;94.70
11664;DHT22;72375;59.302;18.204;2024-01-06T02:50:04;-7.10;94.70
11664;DHT22;72375;59.302;18.204;2024-01-06T02:52:50;-7.10;94.70
11664;DHT22;72375;59.302;18.204;2024-01-06T02:55:37;-7.00;94.80
11664;DHT22;72375;59.302;18.204;2024-01-06T02:58:22;-7.00;94.70
11664;DHT22;72375;59.302;18.204;2024-01-06T03:01:08;-7.00;94.70
11664;DHT22;72375;59.302;18.204;2024-01-06T03:03:54;-6.90;94.80
11664;DHT22;72375;59.302;18.204;2024-01-06T03:06:40;-6.90;94.80
11664;DHT22;72375;59.302;18.204;2024-01-06T03:09:25;-6.90;94.70
11664;DHT22;72375;59.302;18.204;2024-01-06T03:12:12;-6.90;94.80
11664;DHT22;72375;59.302;18.204;2024-01-06T03:14:58;-6.90;94.80
11664;DHT22;72375;59.302;18.204;2024-01-06T03:17:44;-6.90;94.80
11664;DHT22;72375;59.302;18.204;2024-01-06T03:20:29;-6.90;94.80
11664;DHT22;72375;59.302;18.204;2024-01-06T03:23:15;-6.80;94.90
11664;DHT22;72375;59.302;18.204;2024-01-06T03:26:05;-6.80;94.90
11664;DHT22;72375;59.302;18.204;2024-01-06T03:28:54;-6.80;95.00
11664;DHT22;72375;59.302;18.204;2024-01-06T03:31:42;-6.80;94.90
11664;DHT22;72375;59.302;18.204;2024-01-06T03:34:28;-6.80;94.90
11664;DHT22;72375;59.302;18.204;2024-01-06T03:37:13;-6.70;94.90
11664;DHT22;72375;59.302;18.204;2024-01-06T03:39:59;-6.70;94.90
11664;DHT22;72375;59.302;18.204;2024-01-06T03:42:45;-6.70;95.00
11664;DHT22;72375;59.302;18.204;2024-01-06T03:45:32;-6.70;95.10
11664;DHT22;72375;59.302;18.204;2024-01-06T03:48:17;-6.70;95.00
11664;DHT22;72375;59.302;18.204;2024-01-06T03:51:03;-6.60;95.10
11664;DHT22;72375;59.302;18.204;2024-01-06T03:53:49;-6.60;95.20
11664;DHT22;72375;59.302;18.204;2024-01-06T03:56:35;-6.60;95.20
11664;DHT22;72375;59.302;18.204;2024-01-06T03:59:20;-6.60;95.20
11664;DHT22;72375;59.302;18.204;2024-01-06T04:02:07;-6.50;95.20
11664;DHT22;72375;59.302;18.204;2024-01-06T04:04:53;-6.50;95.20
11664;DHT22;72375;59.302;18.204;2024-01-06T04:07:39;-6.50;95.30
11664;DHT22;72375;59.302;18.204;2024-01-06T04:10:24;-6.50;95.30
11664;DHT22;72375;59.302;18.204;2024-01-06T04:13:10;-6.50;95.30
11664;DHT22;72375;59.302;18.204;2024-01-06T04:15:56;-6.50;95.20
11664;DHT22;72375;59.302;18.204;2024-01-06T04:18:43;-6.50;95.30
11664;DHT22;72375;59.302;18.204;2024-01-06T04:21:28;-6.50;95.30
11664;DHT22;72375;59.302;18.204;2024-01-06T04:24:14;-6.40;95.30
11664;DHT22;72375;59.302;18.204;2024-01-06T04:27:00;-6.50;95.30
11664;DHT22;72375;59.302;18.204;2024-01-06T04:29:45;-6.40;95.40
11664;DHT22;72375;59.302;18.204;2024-01-06T04:32:31;-6.40;95.40
11664;DHT22;72375;59.302;18.204;2024-01-06T04:35:20;-6.40;95.40
11664;DHT22;72375;59.302;18.204;2024-01-06T04:38:05;-6.40;95.40
11664;DHT22;72375;59.302;18.204;2024-01-06T04:40:51;-6.40;95.50
11664;DHT22;72375;59.302;18.204;2024-01-06T04:43:37;-6.40;95.50
11664;DHT22;72375;59.302;18.204;2024-01-06T04:46:23;-6.50;95.50
11664;DHT22;72375;59.302;18.204;2024-01-06T04:49:08;-6.50;95.50
11664;DHT22;72375;59.302;18.204;2024-01-06T04:51:55;-6.40;95.60
11664;DHT22;72375;59.302;18.204;2024-01-06T04:54:41;-6.50;95.60
11664;DHT22;72375;59.302;18.204;2024-01-06T04:57:26;-6.50;95.60
11664;DHT22;72375;59.302;18.204;2024-01-06T05:00:13;-6.50;95.70
11664;DHT22;72375;59.302;18.204;2024-01-06T05:02:58;-6.50;95.70
11664;DHT22;72375;59.302;18.204;2024-01-06T05:05:44;-6.50;95.70
11664;DHT22;72375;59.302;18.204;2024-01-06T05:08:31;-6.60;95.70
11664;DHT22;72375;59.302;18.204;2024-01-06T05:11:16;-6.60;95.70
11664;DHT22;72375;59.302;18.204;2024-01-06T05:14:02;-6.60;96.00
11664;DHT22;72375;59.302;18.204;2024-01-06T05:16:48;-6.60;95.80
11664;DHT22;72375;59.302;18.204;2024-01-06T05:19:33;-6.60;95.80
11664;DHT22;72375;59.302;18.204;2024-01-06T05:22:19;-6.60;95.70
11664;DHT22;72375;59.302;18.204;2024-01-06T05:25:07;-6.60;95.70
11664;DHT22;72375;59.302;18.204;2024-01-06T05:27:53;-6.60;95.70
11664;DHT22;72375;59.302;18.204;2024-01-06T05:30:39;-6.60;95.80
11664;DHT22;72375;59.302;18.204;2024-01-06T05:33:24;-6.60;95.80
11664;DHT22;72375;59.302;18.204;2024-01-06T05:36:10;-6.50;95.80
11664;DHT22;72375;59.302;18.204;2024-01-06T05:38:56;-6.60;95.80
11664;DHT22;72375;59.302;18.204;2024-01-06T05:41:43;-6.30;95.90
11664;DHT22;72375;59.302;18.204;2024-01-06T05:44:28;-6.60;95.80
11664;DHT22;72375;59.302;18.204;2024-01-06T05:47:14;-6.60;95.80
11664;DHT22;72375;59.302;18.204;2024-01-06T05:50:01;-6.60;95.80
11664;DHT22;72375;59.302;18.204;2024-01-06T05:52:46;-6.60;95.80
11664;DHT22;72375;59.302;18.204;2024-01-06T05:55:33;-6.60;95.80
11664;DHT22;72375;59.302;18.204;2024-01-06T05:58:20;-6.60;95.80
11664;DHT22;72375;59.302;18.204;2024-01-06T06:01:06;-6.60;95.80
11664;DHT22;72375;59.302;18.204;2024-01-06T06:03:51;-6.60;95.80
11664;DHT22;72375;59.302;18.204;2024-01-06T06:06:37;-6.60;95.70
11664;DHT22;72375;59.302;18.204;2024-01-06T06:09:23;-6.60;95.70
11664;DHT22;72375;59.302;18.204;2024-01-06T06:12:08;-6.60;95.80
11664;DHT22;72375;59.302;18.204;2024-01-06T06:14:55;-6.60;95.80
11664;DHT22;72375;59.302;18.204;2024-01-06T06:17:41;-6.60;95.80
11664;DHT22;72375;59.302;18.204;2024-01-06T06:20:26;-6.60;95.80
11664;DHT22;72375;59.302;18.204;2024-01-06T06:23:12;-6.60;95.80
11664;DHT22;72375;59.302;18.204;2024-01-06T06:25:58;-6.60;95.90
11664;DHT22;72375;59.302;18.204;2024-01-06T06:28:44;-6.60;95.90
11664;DHT22;72375;59.302;18.204;2024-01-06T06:31:31;-6.60;95.90
11664;DHT22;72375;59.302;18.204;2024-01-06T06:34:17;-6.50;95.90
11664;DHT22;72375;59.302;18.204;2024-01-06T06:37:03;-6.60;95.90
11664;DHT22;72375;59.302;18.204;2024-01-06T06:39:49;-6.50;95.90
11664;DHT22;72375;59.302;18.204;2024-01-06T06:42:35;-6.60;95.90
11664;DHT22;72375;59.302;18.204;2024-01-06T06:45:21;-6.50;96.00
11664;DHT22;72375;59.302;18.204;2024-01-06T06:48:08;-6.50;96.00
11664;DHT22;72375;59.302;18.204;2024-01-06T06:50:54;-6.50;96.00
11664;DHT22;72375;59.302;18.204;2024-01-06T06:53:40;-6.50;96.00
11664;DHT22;72375;59.302;18.204;2024-01-06T06:56:25;-6.50;96.10
11664;DHT22;72375;59.302;18.204;2024-01-06T06:59:11;-6.50;96.10
11664;DHT22;72375;59.302;18.204;2024-01-06T07:01:57;-6.50;96.20
11664;DHT22;72375;59.302;18.204;2024-01-06T07:04:45;-6.50;96.10
11664;DHT22;72375;59.302;18.204;2024-01-06T07:07:30;-6.50;96.20
11664;DHT22;72375;59.302;18.204;2024-01-06T07:10:16;-6.40;96.20
11664;DHT22;72375;59.302;18.204;2024-01-06T07:13:01;-6.40;96.20
11664;DHT22;72375;59.302;18.204;2024-01-06T07:15:47;-6.40;96.20
11664;DHT22;72375;59.302;18.204;2024-01-06T07:18:33;-6.40;96.20
11664;DHT22;72375;59.302;18.204;2024-01-06T07:21:20;-6.40;96.20
11664;DHT22;72375;59.302;18.204;2024-01-06T07:24:05;-6.40;96.20
11664;DHT22;72375;59.302;18.204;2024-01-06T07:26:51;-6.30;96.30
11664;DHT22;72375;59.302;18.204;2024-01-06T07:29:36;-6.30;96.30
11664;DHT22;72375;59.302;18.204;2024-01-06T07:32:22;-6.30;96.30
11664;DHT22;72375;59.302;18.204;2024-01-06T07:35:08;-6.30;96.60
11664;DHT22;72375;59.302;18.204;2024-01-06T07:37:55;-6.20;96.30
11664;DHT22;72375;59.302;18.204;2024-01-06T07:40:41;-6.20;96.30
11664;DHT22;72375;59.302;18.204;2024-01-06T07:43:28;-6.20;96.30
11664;DHT22;72375;59.302;18.204;2024-01-06T07:46:14;-6.20;96.30
11664;DHT22;72375;59.302;18.204;2024-01-06T07:48:59;-6.20;96.40
11664;DHT22;72375;59.302;18.204;2024-01-06T07:51:45;-6.20;96.40
11664;DHT22;72375;59.302;18.204;2024-01-06T07:54:32;-6.20;96.40
11664;DHT22;72375;59.302;18.204;2024-01-06T07:57:17;-6.20;96.40
11664;DHT22;72375;59.302;18.204;2024-01-06T08:00:04;-6.20;96.50
11664;DHT22;72375;59.302;18.204;2024-01-06T08:02:49;-6.10;96.50
11664;DHT22;72375;59.302;18.204;2024-01-06T08:05:35;-6.20;96.50
11664;DHT22;72375;59.302;18.204;2024-01-06T08:08:21;-6.20;96.50
11664;DHT22;72375;59.302;18.204;2024-01-06T08:11:08;-6.10;96.60
11664;DHT22;72375;59.302;18.204;2024-01-06T08:13:54;-6.10;96.60
11664;DHT22;72375;59.302;18.204;2024-01-06T08:16:39;-6.10;96.60
11664;DHT22;72375;59.302;18.204;2024-01-06T08:19:25;-6.10;96.60
11664;DHT22;72375;59.302;18.204;2024-01-06T08:22:12;-6.10;96.50
11664;DHT22;72375;59.302;18.204;2024-01-06T08:24:58;-6.10;96.60
11664;DHT22;72375;59.302;18.204;2024-01-06T08:27:45;-6.10;96.60
11664;DHT22;72375;59.302;18.204;2024-01-06T08:30:32;-6.10;96.60
11664;DHT22;72375;59.302;18.204;2024-01-06T08:33:18;-6.10;96.60
11664;DHT22;72375;59.302;18.204;2024-01-06T08:36:05;-6.10;96.60
11664;DHT22;72375;59.302;18.204;2024-01-06T08:38:51;-6.00;96.60
11664;DHT22;72375;59.302;18.204;2024-01-06T08:41:37;-6.00;96.60
11664;DHT22;72375;59.302;18.204;2024-01-06T08:44:24;-6.00;96.50
11664;DHT22;72375;59.302;18.204;2024-01-06T08:47:09;-5.90;96.50
11664;DHT22;72375;59.302;18.204;2024-01-06T08:49:55;-5.90;96.50
11664;DHT22;72375;59.302;18.204;2024-01-06T08:52:41;-5.80;96.50
11664;DHT22;72375;59.302;18.204;2024-01-06T08:55:26;-5.80;96.40
11664;DHT22;72375;59.302;18.204;2024-01-06T08:58:12;-5.80;96.40
11664;DHT22;72375;59.302;18.204;2024-01-06T09:00:59;-5.80;96.40
11664;DHT22;72375;59.302;18.204;2024-01-06T09:03:44;-5.70;96.40
11664;DHT22;72375;59.302;18.204;2024-01-06T09:06:30;-5.70;96.40
11664;DHT22;72375;59.302;18.204;2024-01-06T09:09:16;-5.70;96.80
11664;DHT22;72375;59.302;18.204;2024-01-06T09:12:02;-5.70;96.50
11664;DHT22;72375;59.302;18.204;2024-01-06T09:14:47;-5.60;96.50
11664;DHT22;72375;59.302;18.204;2024-01-06T09:17:34;-5.50;96.40
11664;DHT22;72375;59.302;18.204;2024-01-06T09:20:20;-5.40;96.30
11664;DHT22;72375;59.302;18.204;2024-01-06T09:23:07;-5.30;96.30
11664;DHT22;72375;59.302;18.204;2024-01-06T09:25:52;-5.20;96.20
11664;DHT22;72375;59.302;18.204;2024-01-06T09:28:38;-5.20;96.10
11664;DHT22;72375;59.302;18.204;2024-01-06T09:31:24;-5.10;96.00
11664;DHT22;72375;59.302;18.204;2024-01-06T09:34:11;-5.00;95.90
11664;DHT22;72375;59.302;18.204;2024-01-06T09:36:56;-5.00;95.80
11664;DHT22;72375;59.302;18.204;2024-01-06T09:39:42;-4.90;95.80
11664;DHT22;72375;59.302;18.204;2024-01-06T09:42:28;-4.90;95.80
11664;DHT22;72375;59.302;18.204;2024-01-06T09:45:14;-4.90;95.80
11664;DHT22;72375;59.302;18.204;2024-01-06T09:48:05;-4.90;95.80
11664;DHT22;72375;59.302;18.204;2024-01-06T09:50:56;-4.80;95.90
11664;DHT22;72375;59.302;18.204;2024-01-06T09:53:47;-4.70;95.80
11664;DHT22;72375;59.302;18.204;2024-01-06T09:56:34;-4.70;95.70
11664;DHT22;72375;59.302;18.204;2024-01-06T09:59:19;-4.60;95.70
11664;DHT22;72375;59.302;18.204;2024-01-06T10:02:05;-4.50;95.70
11664;DHT22;72375;59.302;18.204;2024-01-06T10:04:51;-4.40;95.60
11664;DHT22;72375;59.302;18.204;2024-01-06T10:07:37;-4.30;95.50
11664;DHT22;72375;59.302;18.204;2024-01-06T10:10:23;-4.20;95.40
11664;DHT22;72375;59.302;18.204;2024-01-06T10:13:09;-4.10;95.30
11664;DHT22;72375;59.302;18.204;2024-01-06T10:15:55;-4.00;95.20
11664;DHT22;72375;59.302;18.204;2024-01-06T10:18:40;-2.90;95.40
11664;DHT22;72375;59.302;18.204;2024-01-06T10:21:26;-3.20;94.70
11664;DHT22;72375;59.302;18.204;2024-01-06T10:24:13;-3.10;94.20
11664;DHT22;72375;59.302;18.204;2024-01-06T10:26:59;-2.10;94.30
11664;DHT22;72375;59.302;18.204;2024-01-06T10:29:44;-1.90;93.90
11664;DHT22;72375;59.302;18.204;2024-01-06T10:32:31;-1.80;93.00
11664;DHT22;72375;59.302;18.204;2024-01-06T10:35:17;-1.70;92.30
11664;DHT22;72375;59.302;18.204;2024-01-06T10:38:03;-1.60;91.90
11664;DHT22;72375;59.302;18.204;2024-01-06T10:40:57;-1.40;91.60
11664;DHT22;72375;59.302;18.204;2024-01-06T10:43:43;-1.10;91.30
11664;DHT22;72375;59.302;18.204;2024-01-06T10:46:31;-0.90;90.90
11664;DHT22;72375;59.302;18.204;2024-01-06T10:49:17;-0.70;90.50
11664;DHT22;72375;59.302;18.204;2024-01-06T10:52:05;-0.60;90.10
11664;DHT22;72375;59.302;18.204;2024-01-06T10:54:54;-0.40;90.10
11664;DHT22;72375;59.302;18.204;2024-01-06T10:57:43;0.00;90.00
11664;DHT22;72375;59.302;18.204;2024-01-06T11:00:29;0.30;88.80
11664;DHT22;72375;59.302;18.204;2024-01-06T11:03:14;0.70;88.10
11664;DHT22;72375;59.302;18.204;2024-01-06T11:06:00;0.90;86.70
11664;DHT22;72375;59.302;18.204;2024-01-06T11:08:49;1.00;85.90
11664;DHT22;72375;59.302;18.204;2024-01-06T11:11:36;1.30;85.90
11664;DHT22;72375;59.302;18.204;2024-01-06T11:14:26;1.60;84.70
11664;DHT22;72375;59.302;18.204;2024-01-06T11:17:12;1.60;83.70
11664;DHT22;72375;59.302;18.204;2024-01-06T11:20:05;1.40;83.00
11664;DHT22;72375;59.302;18.204;2024-01-06T11:22:51;1.50;83.30
11664;DHT22;72375;59.302;18.204;2024-01-06T11:25:36;1.40;82.60
11664;DHT22;72375;59.302;18.204;2024-01-06T11:28:25;0.90;82.30
11664;DHT22;72375;59.302;18.204;2024-01-06T11:31:12;0.50;83.10
11664;DHT22;72375;59.302;18.204;2024-01-06T11:34:12;0.20;84.00
11664;DHT22;72375;59.302;18.204;2024-01-06T11:36:58;0.00;84.60
11664;DHT22;72375;59.302;18.204;2024-01-06T11:39:45;0.00;85.10
11664;DHT22;72375;59.302;18.204;2024-01-06T11:42:32;0.50;85.40
11664;DHT22;72375;59.302;18.204;2024-01-06T11:45:19;1.00;84.60
11664;DHT22;72375;59.302;18.204;2024-01-06T11:48:07;1.40;83.30
11664;DHT22;72375;59.302;18.204;2024-01-06T11:50:53;1.70;82.60
11664;DHT22;72375;59.302;18.204;2024-01-06T11:53:38;1.80;82.00
11664;DHT22;72375;59.302;18.204;2024-01-06T11:56:25;1.70;80.80
11664;DHT22;72375;59.302;18.204;2024-01-06T11:59:10;1.40;80.80
11664;DHT22;72375;59.302;18.204;2024-01-06T12:01:56;1.10;81.10
11664;DHT22;72375;59.302;18.204;2024-01-06T12:04:48;0.80;81.80
11664;DHT22;72375;59.302;18.204;2024-01-06T12:07:34;0.50;82.40
11664;DHT22;72375;59.302;18.204;2024-01-06T12:10:21;0.20;83.00
11664;DHT22;72375;59.302;18.204;2024-01-06T12:13:07;-0.10;83.20
11664;DHT22;72375;59.302;18.204;2024-01-06T12:15:55;-0.30;84.40
11664;DHT22;72375;59.302;18.204;2024-01-06T12:18:41;-0.40;85.10
11664;DHT22;72375;59.302;18.204;2024-01-06T12:21:28;-0.60;85.10
11664;DHT22;72375;59.302;18.204;2024-01-06T12:24:16;-0.70;85.70
11664;DHT22;72375;59.302;18.204;2024-01-06T12:27:07;-0.80;85.90
11664;DHT22;72375;59.302;18.204;2024-01-06T12:29:54;-0.90;85.90
11664;DHT22;72375;59.302;18.204;2024-01-06T12:32:39;-1.00;85.90
11664;DHT22;72375;59.302;18.204;2024-01-06T12:35:25;-1.00;86.10
11664;DHT22;72375;59.302;18.204;2024-01-06T12:38:12;-1.00;85.60
11664;DHT22;72375;59.302;18.204;2024-01-06T12:40:58;-1.00;85.80
11664;DHT22;72375;59.302;18.204;2024-01-06T12:43:44;-1.20;85.80
11664;DHT22;72375;59.302;18.204;2024-01-06T12:46:29;-1.00;86.40
11664;DHT22;72375;59.302;18.204;2024-01-06T12:49:15;-1.60;86.00
11664;DHT22;72375;59.302;18.204;2024-01-06T12:52:01;-1.60;86.30
11664;DHT22;72375;59.302;18.204;2024-01-06T12:54:48;-1.90;86.60
11664;DHT22;72375;59.302;18.204;2024-01-06T12:57:33;-2.00;87.10
11664;DHT22;72375;59.302;18.204;2024-01-06T13:00:19;-2.10;87.40
11664;DHT22;72375;59.302;18.204;2024-01-06T13:03:04;-2.30;87.60
11664;DHT22;72375;59.302;18.204;2024-01-06T13:05:50;-2.30;87.90
11664;DHT22;72375;59.302;18.204;2024-01-06T13:08:36;-2.40;88.20
11664;DHT22;72375;59.302;18.204;2024-01-06T13:11:23;-2.60;89.00
11664;DHT22;72375;59.302;18.204;2024-01-06T13:14:09;-2.70;88.60
11664;DHT22;72375;59.302;18.204;2024-01-06T13:16:54;-2.70;88.90
11664;DHT22;72375;59.302;18.204;2024-01-06T13:19:40;-2.80;89.20
11664;DHT22;72375;59.302;18.204;2024-01-06T13:22:26;-2.90;89.30
11664;DHT22;72375;59.302;18.204;2024-01-06T13:25:11;-2.40;90.00
11664;DHT22;72375;59.302;18.204;2024-01-06T13:27:58;-3.00;89.70
11664;DHT22;72375;59.302;18.204;2024-01-06T13:30:44;-3.10;89.90
11664;DHT22;72375;59.302;18.204;2024-01-06T13:33:30;-3.20;90.00
11664;DHT22;72375;59.302;18.204;2024-01-06T13:36:16;-3.10;90.20
11664;DHT22;72375;59.302;18.204;2024-01-06T13:39:02;-3.30;90.20
11664;DHT22;72375;59.302;18.204;2024-01-06T13:41:49;-3.30;90.20
11664;DHT22;72375;59.302;18.204;2024-01-06T13:44:36;-3.40;90.30
11664;DHT22;72375;59.302;18.204;2024-01-06T13:47:21;-3.40;90.40
11664;DHT22;72375;59.302;18.204;2024-01-06T13:50:08;-3.50;90.50
11664;DHT22;72375;59.302;18.204;2024-01-06T13:52:54;-3.50;90.90
11664;DHT22;72375;59.302;18.204;2024-01-06T13:55:40;-3.60;90.60
11664;DHT22;72375;59.302;18.204;2024-01-06T13:58:25;-3.60;90.70
11664;DHT22;72375;59.302;18.204;2024-01-06T14:01:13;-3.60;90.80
11664;DHT22;72375;59.302;18.204;2024-01-06T14:03:58;-3.70;90.90
11664;DHT22;72375;59.302;18.204;2024-01-06T14:06:44;-3.70;91.00
11664;DHT22;72375;59.302;18.204;2024-01-06T14:09:32;-3.80;91.40
11664;DHT22;72375;59.302;18.204;2024-01-06T14:12:18;-3.20;91.40
11664;DHT22;72375;59.302;18.204;2024-01-06T14:15:04;-3.80;91.10
11664;DHT22;72375;59.302;18.204;2024-01-06T14:17:52;-3.90;91.20
11664;DHT22;72375;59.302;18.204;2024-01-06T14:20:38;-3.90;91.30
11664;DHT22;72375;59.302;18.204;2024-01-06T14:23:24;-3.90;91.40
11664;DHT22;72375;59.302;18.204;2024-01-06T14:26:11;-4.00;91.40
11664;DHT22;72375;59.302;18.204;2024-01-06T14:28:56;-4.00;91.50
11664;DHT22;72375;59.302;18.204;2024-01-06T14:31:43;-4.00;91.60
11664;DHT22;72375;59.302;18.204;2024-01-06T14:34:30;-4.00;91.70
11664;DHT22;72375;59.302;18.204;2024-01-06T14:37:15;-4.10;91.70
11664;DHT22;72375;59.302;18.204;2024-01-06T14:40:01;-4.10;91.80
11664;DHT22;72375;59.302;18.204;2024-01-06T14:42:49;-4.10;91.90
11664;DHT22;72375;59.302;18.204;2024-01-06T14:45:35;-4.10;91.90
11664;DHT22;72375;59.302;18.204;2024-01-06T14:48:21;-4.20;91.90
11664;DHT22;72375;59.302;18.204;2024-01-06T14:51:08;-4.20;92.00
11664;DHT22;72375;59.302;18.204;2024-01-06T14:53:53;-4.20;92.10
11664;DHT22;72375;59.302;18.204;2024-01-06T14:56:40;-4.30;92.00
11664;DHT22;72375;59.302;18.204;2024-01-06T14:59:26;-4.30;92.10
11664;DHT22;72375;59.302;18.204;2024-01-06T15:02:11;-4.30;92.20
11664;DHT22;72375;59.302;18.204;2024-01-06T15:04:57;-4.30;92.30
11664;DHT22;72375;59.302;18.204;2024-01-06T15:07:45;-4.30;92.40
11664;DHT22;72375;59.302;18.204;2024-01-06T15:10:30;-4.30;92.40
11664;DHT22;72375;59.302;18.204;2024-01-06T15:13:16;-4.40;92.50
11664;DHT22;72375;59.302;18.204;2024-01-06T15:16:02;-4.40;92.50
11664;DHT22;72375;59.302;18.204;2024-01-06T15:18:48;-4.40;92.50
11664;DHT22;72375;59.302;18.204;2024-01-06T15:21:34;-4.40;92.50
11664;DHT22;72375;59.302;18.204;2024-01-06T15:24:22;-4.40;92.60
11664;DHT22;72375;59.302;18.204;2024-01-06T15:27:08;-4.40;92.60
11664;DHT22;72375;59.302;18.204;2024-01-06T15:29:54;-4.50;92.60
11664;DHT22;72375;59.302;18.204;2024-01-06T15:32:41;-4.40;92.60
11664;DHT22;72375;59.302;18.204;2024-01-06T15:35:27;-4.50;92.70
11664;DHT22;72375;59.302;18.204;2024-01-06T15:38:13;-4.50;92.70
11664;DHT22;72375;59.302;18.204;2024-01-06T15:41:00;-4.50;92.70
11664;DHT22;72375;59.302;18.204;2024-01-06T15:43:46;-4.50;92.70
11664;DHT22;72375;59.302;18.204;2024-01-06T15:46:31;-4.50;92.80
11664;DHT22;72375;59.302;18.204;2024-01-06T15:49:17;-4.50;92.90
11664;DHT22;72375;59.302;18.204;2024-01-06T15:52:04;-4.60;92.80
11664;DHT22;72375;59.302;18.204;2024-01-06T15:54:51;-4.50;93.00
11664;DHT22;72375;59.302;18.204;2024-01-06T15:57:39;-4.60;92.80
11664;DHT22;72375;59.302;18.204;2024-01-06T16:00:26;-4.60;92.90
11664;DHT22;72375;59.302;18.204;2024-01-06T16:03:11;-4.30;93.10
11664;DHT22;72375;59.302;18.204;2024-01-06T16:05:57;-4.60;93.00
11664;DHT22;72375;59.302;18.204;2024-01-06T16:08:43;-4.60;93.10
11664;DHT22;72375;59.302;18.204;2024-01-06T16:11:28;-4.70;93.10
11664;DHT22;72375;59.302;18.204;2024-01-06T16:14:15;-4.70;93.20
11664;DHT22;72375;59.302;18.204;2024-01-06T16:17:01;-4.70;93.20
11664;DHT22;72375;59.302;18.204;2024-01-06T16:19:46;-4.70;93.20
11664;DHT22;72375;59.302;18.204;2024-01-06T16:22:32;-4.70;93.20
11664;DHT22;72375;59.302;18.204;2024-01-06T16:25:18;-4.70;93.20
11664;DHT22;72375;59.302;18.204;2024-01-06T16:28:04;-4.70;93.30
11664;DHT22;72375;59.302;18.204;2024-01-06T16:30:52;-4.70;93.40
11664;DHT22;72375;59.302;18.204;2024-01-06T16:33:37;-4.70;93.40
11664;DHT22;72375;59.302;18.204;2024-01-06T16:36:23;-4.70;93.50
11664;DHT22;72375;59.302;18.204;2024-01-06T16:39:08;-4.70;93.50
11664;DHT22;72375;59.302;18.204;2024-01-06T16:41:54;-4.80;93.50
11664;DHT22;72375;59.302;18.204;2024-01-06T16:44:41;-4.80;93.50
11664;DHT22;72375;59.302;18.204;2024-01-06T16:47:28;-4.80;93.60
11664;DHT22;72375;59.302;18.204;2024-01-06T16:50:14;-4.80;93.60
11664;DHT22;72375;59.302;18.204;2024-01-06T16:52:59;-4.80;93.70
11664;DHT22;72375;59.302;18.204;2024-01-06T16:55:45;-4.80;93.80
11664;DHT22;72375;59.302;18.204;2024-01-06T16:58:31;-4.80;93.80
11664;DHT22;72375;59.302;18.204;2024-01-06T17:01:17;-4.90;93.80
11664;DHT22;72375;59.302;18.204;2024-01-06T17:04:04;-4.90;93.90
11664;DHT22;72375;59.302;18.204;2024-01-06T17:06:50;-4.90;93.90
11664;DHT22;72375;59.302;18.204;2024-01-06T17:09:36;-4.90;93.90
11664;DHT22;72375;59.302;18.204;2024-01-06T17:12:22;-4.90;93.90
11664;DHT22;72375;59.302;18.204;2024-01-06T17:15:09;-4.90;93.90